Terminal Aerodrome Forecast
Issued by NWS Atlanta, GA

Home | Current Version | Previous Version | Text Only | Print | Product List | Glossary On
Versions: 1 2 3 4 5 6 7 8 9 10 11 12 13 14 15 16 17 18 19 20 21 22 23 24 25 26 27 28 29 30 31 32 33 34 35 36 37 38 39 40 41
000
FTUS42 KFFC 150900 AAC
TAFATL
TAF AMD
KATL 150933Z 1510/1612 09006KT 1SM BR OVC002
     FM151400 10006KT P6SM OVC006
     FM151600 13006KT P6SM BKN012
     FM151800 19006KT P6SM BKN025
     FM152000 22006KT P6SM VCSH SCT025 BKN040 PROB30 1521/1601 4SM
      -TSRA BKN025CB
     FM160300 25004KT P6SM VCSH SCT030 BKN050
     FM160800 28005KT 4SM -RA BR BKN025=

USA.gov is the U.S. government's official web portal to all federal, state and local government web resources and services.